Flight Track Log - Related Links

Times and Time Zones

All times are in EDT time to prevent confusion due to time zone crossing. See the SWA1728 flight status page for this flight to view local times or setup timezone preferences in your user account.


Time Position Orientation Groundspeed Altitude Reporting Facility
EDT Latitude Longitude Course Direction KTS MPH feet Rate Location/Type
Wed 03:57:35 PM 41.3131 -95.9119 278° West 149 171 1,900  Level Minneapolis Center
Wed 03:58:35 PM 41.3522 -95.9656 314° West 209 241 4,600 2,447 Climbing Minneapolis Center
Wed 03:59:18 PM 41.3781 -95.9892 326° Northwest 194 223 6,100 2,243 Climbing Minneapolis Center
Wed 04:00:22 PM 41.4119 -96.0847 295° West 249 287 8,600 3,000 Climbing Minneapolis Center
Wed 04:01:24 PM 41.4122 -96.1842 270° West 272 313 12,400 2,488 Climbing Minneapolis Center
Wed 04:02:25 PM 41.4097 -96.2911 268° West 288 331 13,700 2,049 Climbing Minneapolis Center
Wed 04:03:00 PM 41.3182 -96.6482 278° West  Level FlightAware Approximate
Wed 04:03:27 PM 41.4100 -96.4139 270° West 328 377 16,600  Level Minneapolis Center
Wed 04:04:29 PM 41.4083 -96.5397 269° West 336 387 18,600 2,177 Climbing Minneapolis Center
Wed 04:05:31 PM 41.4086 -96.6931 270° West 343 395 21,100 2,081 Climbing Minneapolis Center
Wed 04:06:33 PM 41.4025 -96.8222 266° West 349 402 22,900 1,317 Climbing Minneapolis Center
Wed 04:07:34 PM 41.3800 -96.9567 257° West 365 420 23,800 1,122 Climbing Minneapolis Center
Wed 04:08:36 PM 41.3572 -97.1003 258° West 389 448 25,200 1,548 Climbing Minneapolis Center
Wed 04:09:38 PM 41.3272 -97.2442 255° West 400 460 27,000 1,676 Climbing Minneapolis Center
Wed 04:10:52 PM 41.3017 -97.3869 257° West 400 460 29,000 1,697 Climbing Minneapolis Center
Wed 04:12:00 PM 41.2590 -97.5201 247° West  Level FlightAware Approximate
Wed 04:12:56 PM 41.2667 -97.7147 247° West 396 456 32,600  Level Minneapolis Center
Wed 04:13:58 PM 41.2442 -97.8500 258° West 382 440 34,400 1,597 Climbing Minneapolis Center
Wed 04:15:00 PM 41.2208 -98.0083 259° West 367 422 35,900 774 Climbing Minneapolis Center
Wed 04:16:02 PM 41.2006 -98.1406 259° West 365 420 36,000 49 Climbing Minneapolis Center
Wed 04:17:03 PM 41.1808 -98.2736 259° West 366 421 36,000  Level Minneapolis Center
Wed 04:18:05 PM 41.1600 -98.4064 258° West 367 422 36,000  Level Minneapolis Center
Wed 04:19:07 PM 41.1414 -98.5269 258° West 364 419 36,000  Level Minneapolis Center
Wed 04:20:09 PM 41.1169 -98.6828 258° West 361 415 36,000  Level Minneapolis Center
Wed 04:21:11 PM 41.0950 -98.8133 257° West 362 417 36,000  Level Minneapolis Center
Wed 04:22:13 PM 41.0747 -98.9433 258° West 362 417 36,000  Level Minneapolis Center
Wed 04:23:15 PM 41.0550 -99.0703 258° West 356 410 36,000  Level Minneapolis Center
Wed 04:24:17 PM 41.0353 -99.1953 258° West 353 406 36,000  Level Minneapolis Center
Wed 04:24:36 PM 41.0267 -99.2461 257° West 353 406 36,000  Level Denver Center
Wed 04:25:38 PM 41.0056 -99.3731 258° West 353 406 36,000  Level Denver Center
Wed 04:26:39 PM 40.9889 -99.4742 258° West 352 405 36,000  Level Denver Center
Wed 04:27:42 PM 40.9639 -99.6253 258° West 351 404 36,000  Level Denver Center
Wed 04:28:44 PM 40.9425 -99.7519 257° West 353 406 36,000  Level Denver Center
Wed 04:29:46 PM 40.9194 -99.8894 258° West 353 406 36,000  Level Denver Center
Wed 04:30:47 PM 40.8958 -100.0311 258° West 353 406 36,000  Level Denver Center
Wed 04:31:49 PM 40.8758 -100.1528 258° West 353 406 36,000  Level Denver Center
Wed 04:32:51 PM 40.8522 -100.2931 257° West 352 405 36,000  Level Denver Center
Wed 04:33:53 PM 40.8322 -100.4147 258° West 352 405 36,000  Level Denver Center
Wed 04:34:55 PM 40.8092 -100.5528 258° West 346 398 36,000  Level Denver Center
Wed 04:35:57 PM 40.7867 -100.6708 256° West 346 398 36,000  Level Denver Center
Wed 04:36:58 PM 40.7667 -100.7967 258° West 347 399 36,000  Level Denver Center
Wed 04:38:00 PM 40.7436 -100.9333 257° West 340 391 36,000  Level Denver Center
Wed 04:39:14 PM 40.7239 -101.0506 258° West 341 392 36,000  Level Denver Center
Wed 04:41:18 PM 40.6769 -101.3197 257° West 337 388 36,000  Level Denver Center
Wed 04:42:20 PM 40.6539 -101.4542 257° West 337 388 36,000  Level Denver Center
Wed 04:43:34 PM 40.6294 -101.5872 256° West 335 386 36,000  Level Denver Center
Wed 04:44:36 PM 40.6061 -101.7214 257° West 337 388 36,000  Level Denver Center
Wed 04:45:37 PM 40.5844 -101.8372 256° West 340 391 36,000  Level Denver Center
Wed 04:46:39 PM 40.5597 -101.9722 256° West 341 392 36,000  Level Denver Center
Wed 04:47:41 PM 40.5372 -102.0892 256° West 344 396 36,000  Level Denver Center
Wed 04:48:43 PM 40.5167 -102.2069 257° West 346 398 36,000  Level Denver Center
Wed 04:49:45 PM 40.4903 -102.3456 256° West 350 403 36,000  Level Denver Center
Wed 04:50:46 PM 40.4689 -102.4653 257° West 352 405 36,000  Level Denver Center
Wed 04:51:48 PM 40.4428 -102.6053 256° West 353 406 36,000  Level Denver Center
Wed 04:52:50 PM 40.4225 -102.7069 255° West 354 407 36,000  Level Denver Center
Wed 04:53:52 PM 40.3947 -102.8553 256° West 357 411 36,000  Level Denver Center
Wed 04:54:54 PM 40.3700 -102.9836 256° West 359 413 36,000  Level Denver Center
Wed 04:55:55 PM 40.3461 -103.1111 256° West 358 412 36,000 -829 Level Denver Center
Wed 04:56:57 PM 40.3167 -103.2625 256° West 364 419 34,300 -2,613 Descending Denver Center
Wed 04:57:59 PM 40.2911 -103.3936 256° West 369 425 30,600 -2,956 Descending Denver Center
Wed 04:59:13 PM 40.2650 -103.5267 256° West 374 430 27,600 -2,691 Descending Denver Center
Wed 05:00:15 PM 40.2361 -103.6717 255° West 352 405 24,500 -2,710 Descending Denver Center
Wed 05:01:17 PM 40.2122 -103.8036 257° West 339 390 22,000 -1,210 Descending Denver Center
Wed 05:02:19 PM 40.1786 -103.8994 245° Southwest 286 329 22,000 -732 Level Denver Center
Wed 05:03:20 PM 40.1467 -103.9700 239° Southwest 268 308 20,500 -1,645 Descending Denver Center
Wed 05:04:23 PM 40.0994 -104.0692 238° Southwest 261 300 18,600 -1,597 Descending Denver Center
Wed 05:05:24 PM 40.0647 -104.1458 239° Southwest 248 285 17,200 -780 Descending Denver Center
Wed 05:06:26 PM 40.0222 -104.2369 239° Southwest 271 312 17,000 -823 Descending Denver Center
Wed 05:07:28 PM 39.9819 -104.3244 239° Southwest 280 322 15,500 -1,597 Descending Denver Center
Wed 05:08:30 PM 39.9397 -104.4144 239° Southwest 290 334 13,700 -1,887 Descending Denver Center
Wed 05:09:32 PM 39.8811 -104.5019 229° Southwest 307 353 11,600 -1,328 Descending Denver Center
Wed 05:10:32 PM 39.8000 -104.5000 179° South 278 320 11,000 -650 Descending Denver TRACON
Wed 05:11:32 PM 39.7333 -104.5000 180° South 237 273 10,300 -900 Descending Denver TRACON
Wed 05:12:32 PM 39.6667 -104.5000 180° South 228 262 9,200 -614 Descending Denver TRACON
Wed 05:13:39 PM 39.5981 -104.5039 183° South 239 275 9,000 -93 Descending Denver Center
Wed 05:14:41 PM 39.5422 -104.5356 204° Southwest 236 272 9,000  Level Denver Center
Wed 05:15:42 PM 39.5489 -104.6172 276° West 224 258 9,000 -390 Level Denver Center
Wed 05:16:44 PM 39.5933 -104.6558 326° Northwest 191 220 8,200 -484 Descending Denver Center
Wed 05:17:46 PM 39.6403 -104.6631 353° North 168 193 8,000 -532 Descending Denver Center
Wed 05:18:48 PM 39.6900 -104.6622 North 164 189 7,100 -488 Descending Denver Center
Wed 05:19:49 PM 39.7283 -104.6619 360° North 141 162 7,000 -146 Descending Denver Center
Wed 05:20:51 PM 39.7669 -104.6614 North 139 160 6,800 -532 Descending Denver Center
Wed 05:21:53 PM 39.8067 -104.6608 North 134 154 5,900 -677 Descending Denver Center
Wed 05:22:55 PM 39.8428 -104.6625 358° North 129 148 5,400 -484 Descending Denver Center
Wed 05:24:00 PM 39.8500 -104.6667 339° North  Level FlightAware Approximate
Wed 05:31:00 PM 39.8617 -104.6732 339° North  Level Estimated
Wed 05:32:00 PM 39.8617 -104.6732 339° North  Level Estimated
Wed 05:33:00 PM 39.8617 -104.6732 339° North  Level Estimated

Login

Don't have an account? Register now (free) for customized features, flight alerts, and more!